sensor_id;sensor_type;location;lat;lon;timestamp;pressure;altitude;pressure_sealevel;temperature;humidity
76424;BME280;65257;52.104;4.268;2024-02-16T00:00:34;100743.81;;;12.83;69.84
76424;BME280;65257;52.104;4.268;2024-02-16T00:02:59;100734.13;;;12.82;69.66
76424;BME280;65257;52.104;4.268;2024-02-16T00:05:25;100735.78;;;12.83;69.84
76424;BME280;65257;52.104;4.268;2024-02-16T00:07:51;100738.75;;;12.80;69.68
76424;BME280;65257;52.104;4.268;2024-02-16T00:10:16;100738.94;;;12.79;69.64
76424;BME280;65257;52.104;4.268;2024-02-16T00:12:45;100755.06;;;12.77;69.71
76424;BME280;65257;52.104;4.268;2024-02-16T00:15:13;100756.38;;;12.73;69.88
76424;BME280;65257;52.104;4.268;2024-02-16T00:17:38;100743.34;;;12.70;69.79
76424;BME280;65257;52.104;4.268;2024-02-16T00:20:04;100747.16;;;12.68;70.14
76424;BME280;65257;52.104;4.268;2024-02-16T00:22:32;100742.97;;;12.65;70.05
76424;BME280;65257;52.104;4.268;2024-02-16T00:24:58;100735.94;;;12.64;70.27
76424;BME280;65257;52.104;4.268;2024-02-16T00:27:27;100742.28;;;12.63;70.26
76424;BME280;65257;52.104;4.268;2024-02-16T00:29:53;100738.75;;;12.63;70.25
76424;BME280;65257;52.104;4.268;2024-02-16T00:32:19;100745.06;;;12.62;70.29
76424;BME280;65257;52.104;4.268;2024-02-16T00:34:44;100733.25;;;12.64;69.93
76424;BME280;65257;52.104;4.268;2024-02-16T00:37:16;100741.25;;;12.64;70.21
76424;BME280;65257;52.104;4.268;2024-02-16T00:39:41;100735.25;;;12.62;70.20
76424;BME280;65257;52.104;4.268;2024-02-16T00:42:07;100735.41;;;12.61;70.11
76424;BME280;65257;52.104;4.268;2024-02-16T00:44:33;100729.41;;;12.59;70.17
76424;BME280;65257;52.104;4.268;2024-02-16T00:46:58;100718.19;;;12.55;70.30
76424;BME280;65257;52.104;4.268;2024-02-16T00:49:27;100729.81;;;12.54;70.23
76424;BME280;65257;52.104;4.268;2024-02-16T00:51:55;100728.16;;;12.53;70.16
76424;BME280;65257;52.104;4.268;2024-02-16T00:54:20;100732.50;;;12.54;70.04
76424;BME280;65257;52.104;4.268;2024-02-16T00:56:46;100728.84;;;12.55;70.12
76424;BME280;65257;52.104;4.268;2024-02-16T00:59:12;100719.31;;;12.53;69.98
76424;BME280;65257;52.104;4.268;2024-02-16T01:01:37;100712.00;;;12.55;70.08
76424;BME280;65257;52.104;4.268;2024-02-16T01:04:03;100727.69;;;12.58;70.00
76424;BME280;65257;52.104;4.268;2024-02-16T01:06:29;100742.56;;;12.60;69.93
76424;BME280;65257;52.104;4.268;2024-02-16T01:08:54;100730.06;;;12.61;69.77
76424;BME280;65257;52.104;4.268;2024-02-16T01:11:24;100735.72;;;12.58;70.00
76424;BME280;65257;52.104;4.268;2024-02-16T01:13:50;100718.19;;;12.55;69.85
76424;BME280;65257;52.104;4.268;2024-02-16T01:16:19;100709.63;;;12.52;69.95
76424;BME280;65257;52.104;4.268;2024-02-16T01:18:45;100701.41;;;12.45;70.25
76424;BME280;65257;52.104;4.268;2024-02-16T01:21:11;100700.00;;;12.41;70.46
76424;BME280;65257;52.104;4.268;2024-02-16T01:23:43;100706.47;;;12.39;70.43
76424;BME280;65257;52.104;4.268;2024-02-16T01:26:09;100696.09;;;12.36;70.63
76424;BME280;65257;52.104;4.268;2024-02-16T01:28:36;100689.25;;;12.33;70.78
76424;BME280;65257;52.104;4.268;2024-02-16T01:31:02;100698.56;;;12.29;70.67
76424;BME280;65257;52.104;4.268;2024-02-16T01:33:30;100697.88;;;12.27;70.84
76424;BME280;65257;52.104;4.268;2024-02-16T01:36:02;100709.69;;;12.24;70.93
76424;BME280;65257;52.104;4.268;2024-02-16T01:38:31;100710.66;;;12.23;71.08
76424;BME280;65257;52.104;4.268;2024-02-16T01:40:58;100701.25;;;12.19;71.31
76424;BME280;65257;52.104;4.268;2024-02-16T01:43:25;100704.94;;;12.18;71.09
76424;BME280;65257;52.104;4.268;2024-02-16T01:45:51;100698.75;;;12.18;71.10
76424;BME280;65257;52.104;4.268;2024-02-16T01:48:16;100689.22;;;12.15;71.16
76424;BME280;65257;52.104;4.268;2024-02-16T01:50:45;100679.69;;;12.13;71.36
76424;BME280;65257;52.104;4.268;2024-02-16T01:53:16;100692.19;;;12.12;71.28
76424;BME280;65257;52.104;4.268;2024-02-16T01:55:48;100685.50;;;12.08;71.63
76424;BME280;65257;52.104;4.268;2024-02-16T01:58:13;100688.44;;;12.05;71.56
76424;BME280;65257;52.104;4.268;2024-02-16T02:00:40;100694.75;;;12.04;71.83
76424;BME280;65257;52.104;4.268;2024-02-16T02:03:09;100680.56;;;12.04;72.01
76424;BME280;65257;52.104;4.268;2024-02-16T02:05:44;100688.56;;;12.04;72.08
76424;BME280;65257;52.104;4.268;2024-02-16T02:08:13;100688.56;;;12.04;71.74
76424;BME280;65257;52.104;4.268;2024-02-16T02:10:45;100699.25;;;12.04;72.12
76424;BME280;65257;52.104;4.268;2024-02-16T02:13:13;100702.75;;;12.04;72.04
76424;BME280;65257;52.104;4.268;2024-02-16T02:15:40;100693.78;;;12.05;71.75
76424;BME280;65257;52.104;4.268;2024-02-16T02:18:05;100691.25;;;12.04;72.05
76424;BME280;65257;52.104;4.268;2024-02-16T02:20:31;100694.22;;;12.01;71.83
76424;BME280;65257;52.104;4.268;2024-02-16T02:22:57;100693.50;;;11.99;71.93
76424;BME280;65257;52.104;4.268;2024-02-16T02:25:22;100686.53;;;11.98;72.15
76424;BME280;65257;52.104;4.268;2024-02-16T02:27:47;100678.53;;;11.98;72.01
76424;BME280;65257;52.104;4.268;2024-02-16T02:30:13;100675.00;;;11.97;72.31
76424;BME280;65257;52.104;4.268;2024-02-16T02:32:41;100674.03;;;11.98;72.07
76424;BME280;65257;52.104;4.268;2024-02-16T02:35:09;100678.53;;;11.98;71.87
76424;BME280;65257;52.104;4.268;2024-02-16T02:37:39;100678.53;;;11.98;71.86
76424;BME280;65257;52.104;4.268;2024-02-16T02:40:08;100676.16;;;11.95;71.70
76424;BME280;65257;52.104;4.268;2024-02-16T02:42:41;100680.47;;;11.96;72.34
76424;BME280;65257;52.104;4.268;2024-02-16T02:45:10;100671.50;;;11.97;71.93
76424;BME280;65257;52.104;4.268;2024-02-16T02:47:36;100668.84;;;11.97;71.83
76424;BME280;65257;52.104;4.268;2024-02-16T02:50:05;100668.53;;;12.00;71.58
76424;BME280;65257;52.104;4.268;2024-02-16T02:52:35;100673.88;;;12.00;72.00
76424;BME280;65257;52.104;4.268;2024-02-16T02:55:01;100679.91;;;12.02;71.46
76424;BME280;65257;52.104;4.268;2024-02-16T02:57:26;100673.44;;;12.04;71.29
76424;BME280;65257;52.104;4.268;2024-02-16T02:59:52;100665.97;;;12.08;71.11
76424;BME280;65257;52.104;4.268;2024-02-16T03:02:17;100671.31;;;12.08;71.18
76424;BME280;65257;52.104;4.268;2024-02-16T03:04:42;100667.50;;;12.10;71.29
76424;BME280;65257;52.104;4.268;2024-02-16T03:07:14;100657.22;;;12.15;71.00
76424;BME280;65257;52.104;4.268;2024-02-16T03:09:40;100658.59;;;12.19;70.89
76424;BME280;65257;52.104;4.268;2024-02-16T03:12:07;100653.97;;;12.21;70.75
76424;BME280;65257;52.104;4.268;2024-02-16T03:14:33;100655.19;;;12.27;70.63
76424;BME280;65257;52.104;4.268;2024-02-16T03:16:59;100655.88;;;12.29;70.99
76424;BME280;65257;52.104;4.268;2024-02-16T03:19:24;100652.22;;;12.30;70.65
76424;BME280;65257;52.104;4.268;2024-02-16T03:21:52;100649.41;;;12.32;70.51
76424;BME280;65257;52.104;4.268;2024-02-16T03:24:18;100649.25;;;12.33;70.29
76424;BME280;65257;52.104;4.268;2024-02-16T03:26:43;100653.59;;;12.34;70.31
76424;BME280;65257;52.104;4.268;2024-02-16T03:29:09;100653.44;;;12.36;70.47
76424;BME280;65257;52.104;4.268;2024-02-16T03:31:40;100661.31;;;12.37;70.10
76424;BME280;65257;52.104;4.268;2024-02-16T03:34:05;100654.16;;;12.38;70.11
76424;BME280;65257;52.104;4.268;2024-02-16T03:36:31;100642.63;;;12.37;70.31
76424;BME280;65257;52.104;4.268;2024-02-16T03:38:56;100639.81;;;12.39;69.99
76424;BME280;65257;52.104;4.268;2024-02-16T03:41:22;100632.81;;;12.38;70.35
76424;BME280;65257;52.104;4.268;2024-02-16T03:43:49;100633.78;;;12.37;70.59
76424;BME280;65257;52.104;4.268;2024-02-16T03:46:15;100626.63;;;12.37;70.11
76424;BME280;65257;52.104;4.268;2024-02-16T03:48:41;100626.47;;;12.39;70.40
76424;BME280;65257;52.104;4.268;2024-02-16T03:51:07;100632.66;;;12.39;70.31
76424;BME280;65257;52.104;4.268;2024-02-16T03:53:35;100647.97;;;12.37;70.33
76424;BME280;65257;52.104;4.268;2024-02-16T03:56:00;100647.97;;;12.37;70.02
76424;BME280;65257;52.104;4.268;2024-02-16T03:58:26;100651.78;;;12.35;70.06
76424;BME280;65257;52.104;4.268;2024-02-16T04:00:52;100651.09;;;12.33;70.24
76424;BME280;65257;52.104;4.268;2024-02-16T04:03:18;100650.56;;;12.29;70.20
76424;BME280;65257;52.104;4.268;2024-02-16T04:05:45;100640.34;;;12.24;70.58
76424;BME280;65257;52.104;4.268;2024-02-16T04:08:11;100647.63;;;12.22;70.68
76424;BME280;65257;52.104;4.268;2024-02-16T04:10:40;100654.94;;;12.20;70.93
76424;BME280;65257;52.104;4.268;2024-02-16T04:13:06;100658.75;;;12.18;70.04
76424;BME280;65257;52.104;4.268;2024-02-16T04:15:31;100656.25;;;12.16;70.60
76424;BME280;65257;52.104;4.268;2024-02-16T04:17:59;100661.72;;;12.15;70.61
76424;BME280;65257;52.104;4.268;2024-02-16T04:20:25;100650.38;;;12.13;70.86
76424;BME280;65257;52.104;4.268;2024-02-16T04:22:52;100655.88;;;12.11;70.86
76424;BME280;65257;52.104;4.268;2024-02-16T04:25:23;100661.50;;;12.08;71.07
76424;BME280;65257;52.104;4.268;2024-02-16T04:27:51;100644.25;;;12.03;71.24
76424;BME280;65257;52.104;4.268;2024-02-16T04:30:17;100657.72;;;12.01;71.44
76424;BME280;65257;52.104;4.268;2024-02-16T04:32:46;100659.69;;;11.99;71.24
76424;BME280;65257;52.104;4.268;2024-02-16T04:35:22;100646.84;;;11.95;71.99
76424;BME280;65257;52.104;4.268;2024-02-16T04:37:47;100658.63;;;11.92;71.77
76424;BME280;65257;52.104;4.268;2024-02-16T04:40:13;100648.25;;;11.89;71.80
76424;BME280;65257;52.104;4.268;2024-02-16T04:42:39;100649.25;;;11.88;72.04
76424;BME280;65257;52.104;4.268;2024-02-16T04:45:07;100641.97;;;11.90;71.86
76424;BME280;65257;52.104;4.268;2024-02-16T04:47:35;100650.09;;;11.89;72.35
76424;BME280;65257;52.104;4.268;2024-02-16T04:50:05;100651.91;;;11.88;72.57
76424;BME280;65257;52.104;4.268;2024-02-16T04:52:30;100646.91;;;11.85;72.16
76424;BME280;65257;52.104;4.268;2024-02-16T04:54:56;100650.25;;;11.87;72.46
76424;BME280;65257;52.104;4.268;2024-02-16T04:57:21;100648.72;;;11.85;72.40
76424;BME280;65257;52.104;4.268;2024-02-16T04:59:47;100644.22;;;11.85;72.72
76424;BME280;65257;52.104;4.268;2024-02-16T05:02:15;100658.25;;;11.87;72.79
76424;BME280;65257;52.104;4.268;2024-02-16T05:04:41;100653.75;;;11.88;72.69
76424;BME280;65257;52.104;4.268;2024-02-16T05:07:06;100663.28;;;11.90;72.51
76424;BME280;65257;52.104;4.268;2024-02-16T05:09:33;100664.09;;;11.91;72.69
76424;BME280;65257;52.104;4.268;2024-02-16T05:11:58;100655.97;;;11.92;72.75
76424;BME280;65257;52.104;4.268;2024-02-16T05:14:25;100657.63;;;11.93;72.81
76424;BME280;65257;52.104;4.268;2024-02-16T05:16:50;100657.50;;;11.95;72.55
76424;BME280;65257;52.104;4.268;2024-02-16T05:19:16;100662.66;;;11.96;72.62
76424;BME280;65257;52.104;4.268;2024-02-16T05:21:42;100658.03;;;11.98;73.07
76424;BME280;65257;52.104;4.268;2024-02-16T05:24:07;100653.41;;;12.00;72.48
76424;BME280;65257;52.104;4.268;2024-02-16T05:26:32;100662.38;;;11.99;72.90
76424;BME280;65257;52.104;4.268;2024-02-16T05:28:59;100670.38;;;11.99;72.95
76424;BME280;65257;52.104;4.268;2024-02-16T05:31:26;100672.75;;;12.02;73.02
76424;BME280;65257;52.104;4.268;2024-02-16T05:33:51;100676.94;;;12.05;72.97
76424;BME280;65257;52.104;4.268;2024-02-16T05:36:21;100668.78;;;12.06;72.90
76424;BME280;65257;52.104;4.268;2024-02-16T05:38:53;100681.28;;;12.06;72.79
76424;BME280;65257;52.104;4.268;2024-02-16T05:41:21;100682.09;;;12.06;72.81
76424;BME280;65257;52.104;4.268;2024-02-16T05:43:49;100675.97;;;12.06;73.13
76424;BME280;65257;52.104;4.268;2024-02-16T05:46:17;100680.56;;;12.04;73.29
76424;BME280;65257;52.104;4.268;2024-02-16T05:48:44;100688.91;;;12.01;72.89
76424;BME280;65257;52.104;4.268;2024-02-16T05:51:13;100682.16;;;11.97;73.44
76424;BME280;65257;52.104;4.268;2024-02-16T05:53:43;100691.31;;;11.94;73.55
76424;BME280;65257;52.104;4.268;2024-02-16T05:56:13;100685.97;;;11.94;73.36
76424;BME280;65257;52.104;4.268;2024-02-16T05:58:38;100689.94;;;11.90;73.61
76424;BME280;65257;52.104;4.268;2024-02-16T06:01:05;100683.75;;;11.90;73.84
76424;BME280;65257;52.104;4.268;2024-02-16T06:03:30;100682.06;;;11.89;73.84
76424;BME280;65257;52.104;4.268;2024-02-16T06:05:57;100693.41;;;11.91;73.76
76424;BME280;65257;52.104;4.268;2024-02-16T06:08:22;100692.03;;;11.87;73.92
76424;BME280;65257;52.104;4.268;2024-02-16T06:10:48;100684.03;;;11.87;73.92
76424;BME280;65257;52.104;4.268;2024-02-16T06:13:22;100679.28;;;11.90;74.19
76424;BME280;65257;52.104;4.268;2024-02-16T06:15:47;100688.78;;;11.93;74.25
76424;BME280;65257;52.104;4.268;2024-02-16T06:18:13;100691.00;;;11.97;74.14
76424;BME280;65257;52.104;4.268;2024-02-16T06:20:38;100694.06;;;12.02;74.15
76424;BME280;65257;52.104;4.268;2024-02-16T06:23:07;100701.63;;;12.07;74.26
76424;BME280;65257;52.104;4.268;2024-02-16T06:25:34;100704.81;;;12.10;74.14
76424;BME280;65257;52.104;4.268;2024-02-16T06:28:03;100702.00;;;12.12;74.32
76424;BME280;65257;52.104;4.268;2024-02-16T06:30:30;100707.19;;;12.13;74.16
76424;BME280;65257;52.104;4.268;2024-02-16T06:32:55;100723.88;;;12.15;74.12
76424;BME280;65257;52.104;4.268;2024-02-16T06:35:21;100717.25;;;12.19;74.41
76424;BME280;65257;52.104;4.268;2024-02-16T06:37:46;100725.13;;;12.21;74.29
76424;BME280;65257;52.104;4.268;2024-02-16T06:40:12;100717.13;;;12.21;74.13
76424;BME280;65257;52.104;4.268;2024-02-16T06:42:38;100725.13;;;12.21;74.49
76424;BME280;65257;52.104;4.268;2024-02-16T06:45:07;100724.84;;;12.24;74.24
76424;BME280;65257;52.104;4.268;2024-02-16T06:47:36;100722.16;;;12.24;74.09
76424;BME280;65257;52.104;4.268;2024-02-16T06:50:01;100737.16;;;12.25;74.51
76424;BME280;65257;52.104;4.268;2024-02-16T06:52:27;100739.81;;;12.25;74.11
76424;BME280;65257;52.104;4.268;2024-02-16T06:54:54;100729.03;;;12.26;74.48
76424;BME280;65257;52.104;4.268;2024-02-16T06:57:26;100721.88;;;12.27;74.32
76424;BME280;65257;52.104;4.268;2024-02-16T06:59:54;100731.69;;;12.26;74.37
76424;BME280;65257;52.104;4.268;2024-02-16T07:02:25;100740.53;;;12.27;74.40
76424;BME280;65257;52.104;4.268;2024-02-16T07:04:50;100738.56;;;12.29;74.68
76424;BME280;65257;52.104;4.268;2024-02-16T07:07:16;100752.44;;;12.33;74.62
76424;BME280;65257;52.104;4.268;2024-02-16T07:09:41;100755.09;;;12.33;74.81
76424;BME280;65257;52.104;4.268;2024-02-16T07:12:10;100752.28;;;12.34;74.65
76424;BME280;65257;52.104;4.268;2024-02-16T07:14:37;100760.97;;;12.36;74.68
76424;BME280;65257;52.104;4.268;2024-02-16T07:17:03;100768.00;;;12.37;74.49
76424;BME280;65257;52.104;4.268;2024-02-16T07:19:28;100779.63;;;12.36;74.40
76424;BME280;65257;52.104;4.268;2024-02-16T07:21:59;100776.84;;;12.38;74.52
76424;BME280;65257;52.104;4.268;2024-02-16T07:24:25;100782.84;;;12.40;74.97
76424;BME280;65257;52.104;4.268;2024-02-16T07:26:52;100792.53;;;12.41;74.79
76424;BME280;65257;52.104;4.268;2024-02-16T07:29:18;100790.69;;;12.41;74.87
76424;BME280;65257;52.104;4.268;2024-02-16T07:31:46;100804.88;;;12.42;74.62
76424;BME280;65257;52.104;4.268;2024-02-16T07:34:15;100813.56;;;12.44;74.79
76424;BME280;65257;52.104;4.268;2024-02-16T07:36:40;100812.44;;;12.46;75.09
76424;BME280;65257;52.104;4.268;2024-02-16T07:39:06;100812.13;;;12.49;74.91
76424;BME280;65257;52.104;4.268;2024-02-16T07:41:31;100826.03;;;12.53;74.77
76424;BME280;65257;52.104;4.268;2024-02-16T07:43:56;100833.88;;;12.54;74.73
76424;BME280;65257;52.104;4.268;2024-02-16T07:46:22;100837.94;;;12.58;74.53
76424;BME280;65257;52.104;4.268;2024-02-16T07:48:50;100843.13;;;12.60;74.68
76424;BME280;65257;52.104;4.268;2024-02-16T07:51:15;100849.13;;;12.62;74.86
76424;BME280;65257;52.104;4.268;2024-02-16T07:53:41;100853.66;;;12.61;74.55
76424;BME280;65257;52.104;4.268;2024-02-16T07:56:09;100838.22;;;12.55;74.70
76424;BME280;65257;52.104;4.268;2024-02-16T07:58:41;100840.34;;;12.52;74.48
76424;BME280;65257;52.104;4.268;2024-02-16T08:01:08;100844.53;;;12.54;74.59
76424;BME280;65257;52.104;4.268;2024-02-16T08:03:36;100846.06;;;12.57;74.89
76424;BME280;65257;52.104;4.268;2024-02-16T08:06:04;100848.75;;;12.57;74.81
76424;BME280;65257;52.104;4.268;2024-02-16T08:08:30;100857.75;;;12.56;74.72
76424;BME280;65257;52.104;4.268;2024-02-16T08:10:58;100858.72;;;12.55;74.97
76424;BME280;65257;52.104;4.268;2024-02-16T08:13:24;100868.72;;;12.53;74.80
76424;BME280;65257;52.104;4.268;2024-02-16T08:15:49;100859.19;;;12.50;75.14
76424;BME280;65257;52.104;4.268;2024-02-16T08:18:20;100865.94;;;12.45;75.06
76424;BME280;65257;52.104;4.268;2024-02-16T08:20:45;100871.84;;;12.39;75.00
76424;BME280;65257;52.104;4.268;2024-02-16T08:23:10;100884.66;;;12.35;75.30
76424;BME280;65257;52.104;4.268;2024-02-16T08:25:39;100886.78;;;12.32;75.40
76424;BME280;65257;52.104;4.268;2024-02-16T08:28:04;100896.34;;;12.24;75.45
76424;BME280;65257;52.104;4.268;2024-02-16T08:30:33;100895.91;;;12.19;75.93
76424;BME280;65257;52.104;4.268;2024-02-16T08:32:59;100906.47;;;12.11;75.95
76424;BME280;65257;52.104;4.268;2024-02-16T08:35:25;100917.84;;;12.04;76.04
76424;BME280;65257;52.104;4.268;2024-02-16T08:37:50;100915.47;;;12.01;76.22
76424;BME280;65257;52.104;4.268;2024-02-16T08:40:16;100924.03;;;11.95;75.94
76424;BME280;65257;52.104;4.268;2024-02-16T08:42:44;100928.66;;;11.93;76.17
76424;BME280;65257;52.104;4.268;2024-02-16T08:45:10;100927.53;;;11.86;76.58
76424;BME280;65257;52.104;4.268;2024-02-16T08:47:40;100934.16;;;11.82;76.33
76424;BME280;65257;52.104;4.268;2024-02-16T08:50:09;100934.41;;;11.79;76.64
76424;BME280;65257;52.104;4.268;2024-02-16T08:52:34;100942.41;;;11.79;76.94
76424;BME280;65257;52.104;4.268;2024-02-16T08:55:00;100942.84;;;11.74;76.57
76424;BME280;65257;52.104;4.268;2024-02-16T08:57:25;100951.50;;;11.66;76.85
76424;BME280;65257;52.104;4.268;2024-02-16T08:59:54;100951.38;;;11.58;77.09
76424;BME280;65257;52.104;4.268;2024-02-16T09:02:21;100960.06;;;11.51;77.21
76424;BME280;65257;52.104;4.268;2024-02-16T09:04:50;100963.94;;;11.47;77.84
76424;BME280;65257;52.104;4.268;2024-02-16T09:07:18;100967.72;;;11.44;77.85
76424;BME280;65257;52.104;4.268;2024-02-16T09:09:44;100973.47;;;11.40;77.88
76424;BME280;65257;52.104;4.268;2024-02-16T09:12:15;100975.72;;;11.35;78.20
76424;BME280;65257;52.104;4.268;2024-02-16T09:14:41;100978.06;;;11.28;78.40
76424;BME280;65257;52.104;4.268;2024-02-16T09:17:06;100981.25;;;11.22;78.38
76424;BME280;65257;52.104;4.268;2024-02-16T09:19:32;100989.94;;;11.15;78.91
76424;BME280;65257;52.104;4.268;2024-02-16T09:21:59;100989.50;;;11.10;79.09
76424;BME280;65257;52.104;4.268;2024-02-16T09:24:27;100997.03;;;11.04;78.86
76424;BME280;65257;52.104;4.268;2024-02-16T09:26:54;100996.75;;;10.98;79.13
76424;BME280;65257;52.104;4.268;2024-02-16T09:29:20;100995.72;;;10.89;79.54
76424;BME280;65257;52.104;4.268;2024-02-16T09:31:49;101013.78;;;10.86;79.79
76424;BME280;65257;52.104;4.268;2024-02-16T09:34:14;101014.19;;;10.81;79.79
76424;BME280;65257;52.104;4.268;2024-02-16T09:36:40;101019.06;;;10.76;80.16
76424;BME280;65257;52.104;4.268;2024-02-16T09:39:05;101032.03;;;10.70;80.46
76424;BME280;65257;52.104;4.268;2024-02-16T09:41:41;101035.78;;;10.67;80.43
76424;BME280;65257;52.104;4.268;2024-02-16T09:44:07;101043.47;;;10.61;80.55
76424;BME280;65257;52.104;4.268;2024-02-16T09:46:36;101054.63;;;10.55;81.27
76424;BME280;65257;52.104;4.268;2024-02-16T09:49:02;101068.31;;;10.50;81.34
76424;BME280;65257;52.104;4.268;2024-02-16T09:51:28;101067.84;;;10.45;81.40
76424;BME280;65257;52.104;4.268;2024-02-16T09:53:54;101068.09;;;10.42;81.38
76424;BME280;65257;52.104;4.268;2024-02-16T09:56:20;101077.03;;;10.41;81.64
76424;BME280;65257;52.104;4.268;2024-02-16T09:58:49;101077.75;;;10.43;81.84
76424;BME280;65257;52.104;4.268;2024-02-16T10:01:19;101092.75;;;10.44;81.44
76424;BME280;65257;52.104;4.268;2024-02-16T10:03:52;101099.03;;;10.43;82.35
76424;BME280;65257;52.104;4.268;2024-02-16T10:06:17;101100.97;;;10.41;82.35
76424;BME280;65257;52.104;4.268;2024-02-16T10:08:53;101099.88;;;10.43;82.36
76424;BME280;65257;52.104;4.268;2024-02-16T10:11:21;101109.41;;;10.46;82.63
76424;BME280;65257;52.104;4.268;2024-02-16T10:14:02;101112.28;;;10.54;82.22
76424;BME280;65257;52.104;4.268;2024-02-16T10:16:29;101115.38;;;10.59;82.33
76424;BME280;65257;52.104;4.268;2024-02-16T10:19:07;101115.72;;;10.66;82.02
76424;BME280;65257;52.104;4.268;2024-02-16T10:21:35;101127.69;;;10.71;82.16
76424;BME280;65257;52.104;4.268;2024-02-16T10:24:11;101129.94;;;10.76;82.35
76424;BME280;65257;52.104;4.268;2024-02-16T10:26:39;101139.47;;;10.78;82.00
76424;BME280;65257;52.104;4.268;2024-02-16T10:29:07;101132.22;;;10.80;82.12
76424;BME280;65257;52.104;4.268;2024-02-16T10:31:33;101145.25;;;10.83;82.75
76424;BME280;65257;52.104;4.268;2024-02-16T10:34:01;101150.06;;;10.89;82.50
76424;BME280;65257;52.104;4.268;2024-02-16T10:36:37;101152.94;;;10.97;82.32
76424;BME280;65257;52.104;4.268;2024-02-16T10:39:05;101160.25;;;11.05;82.70
76424;BME280;65257;52.104;4.268;2024-02-16T10:41:36;101171.09;;;11.13;82.19
76424;BME280;65257;52.104;4.268;2024-02-16T10:44:03;101188.75;;;11.14;82.58
76424;BME280;65257;52.104;4.268;2024-02-16T10:46:39;101199.38;;;11.14;82.33
76424;BME280;65257;52.104;4.268;2024-02-16T10:49:05;101204.25;;;11.09;82.09
76424;BME280;65257;52.104;4.268;2024-02-16T10:51:39;101202.00;;;11.04;82.12
76424;BME280;65257;52.104;4.268;2024-02-16T10:54:09;101211.34;;;10.99;82.54
76424;BME280;65257;52.104;4.268;2024-02-16T10:56:37;101214.53;;;10.93;82.20
76424;BME280;65257;52.104;4.268;2024-02-16T10:59:04;101213.78;;;10.91;82.36
76424;BME280;65257;52.104;4.268;2024-02-16T11:01:43;101218.88;;;10.94;82.17
76424;BME280;65257;52.104;4.268;2024-02-16T11:04:16;101226.22;;;11.01;82.45
76424;BME280;65257;52.104;4.268;2024-02-16T11:06:49;101227.06;;;11.02;82.03
76424;BME280;65257;52.104;4.268;2024-02-16T11:09:28;101215.44;;;11.03;81.88
76424;BME280;65257;52.104;4.268;2024-02-16T11:11:58;101220.44;;;11.17;81.81
76424;BME280;65257;52.104;4.268;2024-02-16T11:14:34;101233.69;;;11.28;81.74
76424;BME280;65257;52.104;4.268;2024-02-16T11:16:59;101238.50;;;11.34;81.78
76424;BME280;65257;52.104;4.268;2024-02-16T11:19:25;101254.34;;;11.36;81.55
76424;BME280;65257;52.104;4.268;2024-02-16T11:22:03;101257.44;;;11.41;81.97
76424;BME280;65257;52.104;4.268;2024-02-16T11:24:33;101264.41;;;11.53;81.85
76424;BME280;65257;52.104;4.268;2024-02-16T11:27:07;101256.28;;;11.75;81.55
76424;BME280;65257;52.104;4.268;2024-02-16T11:29:36;101259.72;;;11.87;81.20
76424;BME280;65257;52.104;4.268;2024-02-16T11:32:11;101261.00;;;11.92;81.07
76424;BME280;65257;52.104;4.268;2024-02-16T11:34:36;101272.81;;;11.99;80.89
76424;BME280;65257;52.104;4.268;2024-02-16T11:37:03;101270.75;;;12.12;80.24
76424;BME280;65257;52.104;4.268;2024-02-16T11:39:30;101280.75;;;12.20;80.50
76424;BME280;65257;52.104;4.268;2024-02-16T11:42:06;101291.22;;;12.33;79.79
76424;BME280;65257;52.104;4.268;2024-02-16T11:44:33;101285.88;;;12.33;79.53
76424;BME280;65257;52.104;4.268;2024-02-16T11:47:00;101294.31;;;12.38;79.48
76424;BME280;65257;52.104;4.268;2024-02-16T11:49:28;101289.84;;;12.48;78.78
76424;BME280;65257;52.104;4.268;2024-02-16T11:51:59;101305.75;;;12.59;78.65
76424;BME280;65257;52.104;4.268;2024-02-16T11:54:25;101301.13;;;12.61;78.27
76424;BME280;65257;52.104;4.268;2024-02-16T11:56:53;101303.50;;;12.64;77.91
76424;BME280;65257;52.104;4.268;2024-02-16T11:59:19;101306.19;;;12.73;77.90
76424;BME280;65257;52.104;4.268;2024-02-16T12:04:23;101314.94;;;12.95;77.55
76424;BME280;65257;52.104;4.268;2024-02-16T12:06:59;101311.69;;;12.91;77.46
76424;BME280;65257;52.104;4.268;2024-02-16T12:09:25;101312.38;;;12.83;77.40
76424;BME280;65257;52.104;4.268;2024-02-16T12:11:52;101316.75;;;12.84;77.57
76424;BME280;65257;52.104;4.268;2024-02-16T12:14:24;101323.22;;;12.82;77.32
76424;BME280;65257;52.104;4.268;2024-02-16T12:16:56;101328.13;;;12.77;77.48
76424;BME280;65257;52.104;4.268;2024-02-16T12:19:22;101331.59;;;12.77;77.38
76424;BME280;65257;52.104;4.268;2024-02-16T12:21:54;101334.75;;;12.82;77.36
76424;BME280;65257;52.104;4.268;2024-02-16T12:24:21;101335.28;;;12.86;77.41
76424;BME280;65257;52.104;4.268;2024-02-16T12:26:47;101354.13;;;12.84;77.10
76424;BME280;65257;52.104;4.268;2024-02-16T12:29:13;101344.16;;;12.86;76.96
76424;BME280;65257;52.104;4.268;2024-02-16T12:31:40;101359.63;;;12.93;77.31
76424;BME280;65257;52.104;4.268;2024-02-16T12:34:07;101353.72;;;12.99;76.99
76424;BME280;65257;52.104;4.268;2024-02-16T12:36:38;101358.38;;;13.06;76.82
76424;BME280;65257;52.104;4.268;2024-02-16T12:39:05;101366.59;;;13.14;76.62
76424;BME280;65257;52.104;4.268;2024-02-16T12:41:35;101371.06;;;13.23;76.29
76424;BME280;65257;52.104;4.268;2024-02-16T12:44:01;101373.75;;;13.33;75.72
76424;BME280;65257;52.104;4.268;2024-02-16T12:46:27;101379.63;;;13.94;75.20
76424;BME280;65257;52.104;4.268;2024-02-16T12:48:55;101376.16;;;15.12;72.89
76424;BME280;65257;52.104;4.268;2024-02-16T12:51:24;101370.00;;;15.82;71.07
76424;BME280;65257;52.104;4.268;2024-02-16T12:53:50;101381.13;;;16.46;69.39